createdAt,value
2022-12-08T00:01:33.568Z,33.35
2022-12-08T00:06:54.109Z,40.15
2022-12-08T00:09:25.864Z,35.78
2022-12-08T00:11:53.393Z,29.63
2022-12-08T00:14:24.990Z,32.92
2022-12-08T00:19:20.498Z,30.38
2022-12-08T00:21:48.120Z,33.42
2022-12-08T00:24:16.139Z,32.58
2022-12-08T00:26:43.750Z,29.75
2022-12-08T00:29:17.041Z,36.85
2022-12-08T00:31:45.292Z,29.25
2022-12-08T00:34:16.638Z,32.03
2022-12-08T00:36:44.861Z,29.10
2022-12-08T00:39:13.897Z,34.55
2022-12-08T00:42:00.244Z,28.55
2022-12-08T00:44:28.111Z,31.17
2022-12-08T00:46:55.886Z,36.65
2022-12-08T00:49:23.752Z,31.98
2022-12-08T00:51:51.373Z,26.25
2022-12-08T00:54:19.181Z,36.28
2022-12-08T00:56:46.746Z,32.90
2022-12-08T00:59:14.672Z,38.13
2022-12-08T01:01:45.384Z,32.42
2022-12-08T01:04:15.727Z,36.00
2022-12-08T01:06:44.421Z,39.13
2022-12-08T01:09:13.748Z,42.85
2022-12-08T01:11:41.340Z,36.90
2022-12-08T01:14:08.875Z,28.40
2022-12-08T01:16:37.173Z,39.63
2022-12-08T01:19:05.023Z,36.50
2022-12-08T01:21:32.749Z,40.95
2022-12-08T01:24:01.015Z,34.30
2022-12-08T01:26:28.572Z,39.35
2022-12-08T01:28:56.135Z,39.42
2022-12-08T01:31:24.320Z,35.40
2022-12-08T01:33:51.939Z,38.67
2022-12-08T01:36:27.888Z,33.55
2022-12-08T01:38:58.220Z,34.72
2022-12-08T01:41:28.725Z,35.88
2022-12-08T01:44:02.233Z,36.35
2022-12-08T01:46:32.240Z,37.28
2022-12-08T01:49:21.457Z,38.55
2022-12-08T01:52:00.981Z,40.05
2022-12-08T01:54:32.068Z,46.47
2022-12-08T01:57:06.409Z,37.80
2022-12-08T02:02:18.340Z,36.72
2022-12-08T02:04:46.029Z,43.83
2022-12-08T02:07:16.373Z,39.72
2022-12-08T02:09:45.375Z,44.55
2022-12-08T02:12:13.228Z,43.05
2022-12-08T02:14:40.910Z,41.25
2022-12-08T02:17:14.916Z,40.90
2022-12-08T02:20:43.985Z,40.42
2022-12-08T02:23:20.041Z,46.58
2022-12-08T02:25:59.355Z,41.28
2022-12-08T02:28:41.836Z,41.33
2022-12-08T02:31:30.268Z,34.47
2022-12-08T02:34:21.114Z,39.45
2022-12-08T02:37:07.532Z,40.65
2022-12-08T02:40:02.073Z,36.63
2022-12-08T02:42:50.713Z,36.75
2022-12-08T02:45:39.655Z,37.60
2022-12-08T02:48:09.131Z,36.00
2022-12-08T02:50:36.880Z,37.33
2022-12-08T02:56:10.580Z,33.63
2022-12-08T02:59:17.027Z,41.70
2022-12-08T03:01:50.669Z,40.05
2022-12-08T03:04:21.092Z,39.65
2022-12-08T03:07:10.882Z,35.47
2022-12-08T03:10:06.489Z,32.92
2022-12-08T03:12:51.286Z,37.17
2022-12-08T03:15:21.328Z,41.20
2022-12-08T03:17:53.681Z,39.25
2022-12-08T03:20:24.417Z,39.13
2022-12-08T03:22:55.710Z,40.42
2022-12-08T03:25:27.547Z,38.80
2022-12-08T03:27:55.117Z,40.30
2022-12-08T03:30:22.808Z,43.70
2022-12-08T03:33:01.835Z,42.72
2022-12-08T03:35:33.398Z,38.90
2022-12-08T03:38:07.517Z,41.75
2022-12-08T03:40:35.376Z,39.17
2022-12-08T03:43:03.283Z,34.22
2022-12-08T03:45:31.007Z,42.17
2022-12-08T03:47:58.622Z,38.22
2022-12-08T03:50:26.848Z,39.60
2022-12-08T03:52:54.372Z,41.80
2022-12-08T03:55:22.441Z,37.50
2022-12-08T03:57:49.917Z,38.97
2022-12-08T04:00:17.870Z,41.25
2022-12-08T04:02:45.518Z,39.30
2022-12-08T04:05:13.288Z,41.08
2022-12-08T04:07:41.002Z,39.10
2022-12-08T04:10:09.483Z,36.67
2022-12-08T04:12:37.008Z,40.33
2022-12-08T04:15:05.053Z,37.15
2022-12-08T04:17:32.532Z,38.15
2022-12-08T04:20:00.110Z,36.85
2022-12-08T04:22:27.873Z,38.67
2022-12-08T04:24:55.468Z,40.92
2022-12-08T04:27:23.134Z,38.50
2022-12-08T04:29:50.746Z,37.45
2022-12-08T04:32:18.419Z,35.80
2022-12-08T04:34:46.608Z,35.75
2022-12-08T04:37:14.221Z,39.15
2022-12-08T04:39:41.871Z,38.17
2022-12-08T04:42:09.454Z,32.08
2022-12-08T04:44:37.019Z,38.05
2022-12-08T04:47:04.920Z,39.28
2022-12-08T04:49:32.495Z,36.63
2022-12-08T04:52:00.233Z,42.60
2022-12-08T04:54:28.312Z,35.30
2022-12-08T04:56:55.977Z,37.95
2022-12-08T04:59:23.573Z,43.42
2022-12-08T05:01:51.171Z,38.15
2022-12-08T05:04:18.800Z,37.30
2022-12-08T05:06:46.333Z,39.28
2022-12-08T05:09:13.955Z,33.03
2022-12-08T05:11:46.940Z,29.65
2022-12-08T05:14:18.507Z,35.15
2022-12-08T05:16:47.192Z,38.15
2022-12-08T05:19:15.738Z,37.00
2022-12-08T05:21:43.699Z,41.53
2022-12-08T05:24:11.232Z,48.42
2022-12-08T05:26:38.756Z,35.35
2022-12-08T05:29:06.357Z,36.15
2022-12-08T05:31:33.935Z,35.05
2022-12-08T05:34:03.392Z,29.85
2022-12-08T05:36:31.208Z,34.28
2022-12-08T05:38:58.872Z,37.60
2022-12-08T05:41:26.508Z,33.63
2022-12-08T05:43:54.057Z,32.38
2022-12-08T05:46:22.031Z,42.28
2022-12-08T05:48:49.781Z,34.70
2022-12-08T05:51:23.463Z,44.15
2022-12-08T05:53:52.607Z,37.40
2022-12-08T05:56:21.105Z,39.40
2022-12-08T05:58:49.212Z,33.95
2022-12-08T06:01:37.505Z,32.35
2022-12-08T06:04:05.545Z,37.47
2022-12-08T06:06:35.582Z,39.85
2022-12-08T06:09:05.144Z,32.90
2022-12-08T06:11:33.570Z,33.25
2022-12-08T06:14:01.987Z,28.75
2022-12-08T06:16:30.664Z,32.13
2022-12-08T06:18:59.298Z,32.78
2022-12-08T06:21:26.866Z,36.15
2022-12-08T06:23:55.483Z,33.63
2022-12-08T06:26:23.148Z,31.77
2022-12-08T06:28:50.966Z,35.08
2022-12-08T06:31:21.001Z,32.42
2022-12-08T06:33:49.112Z,33.00
2022-12-08T06:36:18.813Z,32.35
2022-12-08T06:38:46.891Z,32.65
2022-12-08T06:41:14.760Z,34.03
2022-12-08T06:43:43.242Z,32.13
2022-12-08T06:46:14.369Z,38.95
2022-12-08T06:48:42.157Z,41.40
2022-12-08T06:51:15.776Z,31.63
2022-12-08T06:53:44.248Z,28.42
2022-12-08T06:56:12.696Z,30.20
2022-12-08T06:58:40.246Z,30.00
2022-12-08T07:01:10.840Z,30.88
2022-12-08T07:03:39.391Z,25.85
2022-12-08T07:06:07.716Z,27.80
2022-12-08T07:08:35.478Z,34.80
2022-12-08T07:11:19.655Z,32.42
2022-12-08T07:13:48.991Z,28.20
2022-12-08T07:16:16.695Z,32.90
2022-12-08T07:18:44.332Z,32.13
2022-12-08T07:21:14.991Z,26.30
2022-12-08T07:23:45.000Z,25.55
2022-12-08T07:26:13.652Z,28.13
2022-12-08T07:28:42.643Z,27.13
2022-12-08T07:31:19.253Z,25.55
2022-12-08T07:33:47.720Z,27.48
2022-12-08T07:36:15.250Z,25.65
2022-12-08T07:38:43.611Z,30.52
2022-12-08T07:41:19.878Z,28.25
2022-12-08T07:43:48.080Z,32.65
2022-12-08T07:46:19.112Z,31.08
2022-12-08T07:48:47.219Z,27.60
2022-12-08T07:51:16.738Z,31.95
2022-12-08T07:53:50.032Z,33.38
2022-12-08T07:56:21.434Z,32.63
2022-12-08T07:58:49.105Z,34.40
2022-12-08T08:01:36.086Z,34.72
2022-12-08T08:04:05.473Z,35.60
2022-12-08T08:06:34.849Z,32.45
2022-12-08T08:09:02.596Z,29.05
2022-12-08T08:11:30.173Z,35.72
2022-12-08T08:13:58.042Z,36.25
2022-12-08T08:16:25.875Z,32.70
2022-12-08T08:18:53.704Z,37.28
2022-12-08T08:21:44.285Z,34.38
2022-12-08T08:24:09.612Z,42.17
2022-12-08T08:26:37.659Z,33.78
2022-12-08T08:29:05.268Z,35.47
2022-12-08T08:31:33.077Z,39.47
2022-12-08T08:34:05.105Z,37.80
2022-12-08T08:36:32.990Z,36.28
2022-12-08T08:39:00.512Z,33.08
2022-12-08T08:41:28.069Z,29.60
2022-12-08T08:43:55.643Z,33.72
2022-12-08T08:46:23.280Z,32.85
2022-12-08T08:48:50.812Z,30.88
2022-12-08T08:51:23.718Z,24.58
2022-12-08T08:53:51.563Z,28.42
2022-12-08T08:56:20.026Z,27.48
2022-12-08T08:58:49.739Z,25.70
2022-12-08T09:01:21.324Z,24.75
2022-12-08T09:06:17.721Z,28.27
2022-12-08T09:08:45.977Z,24.35
2022-12-08T09:11:13.900Z,22.90
2022-12-08T09:13:41.888Z,27.38
2022-12-08T09:16:11.539Z,24.42
2022-12-08T09:18:39.150Z,28.27
2022-12-08T09:21:09.400Z,28.02
2022-12-08T09:23:36.968Z,26.75
2022-12-08T09:26:05.230Z,25.85
2022-12-08T09:28:33.571Z,25.50
2022-12-08T09:31:01.811Z,25.17
2022-12-08T09:33:29.402Z,24.65
2022-12-08T09:35:57.001Z,23.63
2022-12-08T09:38:24.637Z,25.10
2022-12-08T09:40:54.092Z,28.20
2022-12-08T09:43:45.684Z,29.45
2022-12-08T09:46:15.271Z,28.75
2022-12-08T09:48:47.998Z,26.05
2022-12-08T09:51:16.245Z,26.10
2022-12-08T09:53:51.486Z,25.50
2022-12-08T09:56:24.628Z,28.17
2022-12-08T09:59:14.722Z,29.55
2022-12-08T10:01:42.470Z,27.80
2022-12-08T10:04:30.020Z,26.63
2022-12-08T10:07:25.500Z,31.88
2022-12-08T10:10:12.444Z,25.58
2022-12-08T10:13:06.166Z,22.65
2022-12-08T10:15:58.915Z,30.40
2022-12-08T10:18:31.910Z,26.85
2022-12-08T10:21:18.159Z,25.15
2022-12-08T10:23:52.776Z,28.08
2022-12-08T10:26:22.153Z,28.58
2022-12-08T10:28:50.409Z,29.00
2022-12-08T10:31:24.086Z,26.90
2022-12-08T10:34:00.380Z,27.85
2022-12-08T10:37:07.688Z,25.45
2022-12-08T10:39:45.721Z,26.38
2022-12-08T10:42:20.723Z,38.17
2022-12-08T10:45:09.849Z,43.78
2022-12-08T10:47:44.592Z,47.05
2022-12-08T10:50:15.944Z,40.08
2022-12-08T10:52:43.644Z,38.97
2022-12-08T10:55:18.075Z,31.75
2022-12-08T10:57:46.324Z,28.00
2022-12-08T11:00:16.449Z,28.20
2022-12-08T11:02:58.962Z,21.50
2022-12-08T11:05:31.168Z,24.02
2022-12-08T11:07:59.237Z,18.23
2022-12-08T11:10:42.383Z,19.60
2022-12-08T11:13:21.953Z,17.35
2022-12-08T11:15:50.624Z,19.13
2022-12-08T11:18:42.240Z,19.13
2022-12-08T11:21:18.536Z,12.63
2022-12-08T11:23:51.039Z,13.48
2022-12-08T11:26:32.260Z,12.30
2022-12-08T11:28:59.926Z,10.57
2022-12-08T11:31:50.027Z,12.23
2022-12-08T11:34:26.720Z,14.57
2022-12-08T11:36:57.411Z,11.95
2022-12-08T11:39:29.763Z,13.40
2022-12-08T11:41:58.829Z,11.10
2022-12-08T11:44:35.712Z,14.88
2022-12-08T11:47:27.513Z,14.82
2022-12-08T11:50:04.203Z,13.68
2022-12-08T11:52:45.290Z,10.60
2022-12-08T11:55:49.913Z,8.48
2022-12-08T11:58:39.287Z,9.82
2022-12-08T12:01:21.133Z,9.73
2022-12-08T12:04:12.001Z,9.13
2022-12-08T12:07:00.592Z,11.65
2022-12-08T12:09:38.696Z,10.80
2022-12-08T12:12:32.583Z,10.00
2022-12-08T12:15:30.619Z,11.60
2022-12-08T12:18:27.226Z,10.82
2022-12-08T12:21:05.306Z,12.23
2022-12-08T12:24:05.429Z,8.55
2022-12-08T12:26:37.981Z,7.70
2022-12-08T12:29:21.191Z,9.93
2022-12-08T12:31:53.497Z,9.90
2022-12-08T12:34:39.476Z,9.98
2022-12-08T12:37:10.439Z,10.05
2022-12-08T12:39:53.437Z,7.07
2022-12-08T12:42:38.484Z,8.85
2022-12-08T12:45:16.215Z,9.38
2022-12-08T12:47:56.730Z,10.23
2022-12-08T12:50:34.219Z,9.02
2022-12-08T12:53:10.613Z,8.50
2022-12-08T12:56:02.469Z,8.45
2022-12-08T12:58:30.273Z,8.88
2022-12-08T13:01:13.029Z,7.90
2022-12-08T13:03:47.451Z,8.02
2022-12-08T13:06:22.597Z,11.95
2022-12-08T13:08:53.245Z,7.57
2022-12-08T13:11:22.604Z,7.50
2022-12-08T13:14:03.319Z,9.35
2022-12-08T13:16:37.544Z,9.25
2022-12-08T13:19:13.653Z,6.93
2022-12-08T13:21:41.714Z,10.82
2022-12-08T13:24:17.770Z,9.13
2022-12-08T13:26:50.281Z,8.88
2022-12-08T13:29:23.725Z,8.68
2022-12-08T13:31:57.908Z,9.00
2022-12-08T13:34:29.812Z,8.02
2022-12-08T13:37:12.287Z,10.48
2022-12-08T13:39:39.812Z,8.90
2022-12-08T13:42:13.452Z,8.45
2022-12-08T13:57:08.913Z,10.70
2022-12-08T13:59:44.184Z,10.48
2022-12-08T14:02:47.795Z,11.07
2022-12-08T14:05:20.456Z,10.18
2022-12-08T14:07:53.340Z,9.90
2022-12-08T14:10:25.948Z,10.35
2022-12-08T14:13:01.403Z,9.68
2022-12-08T14:15:35.550Z,11.25
2022-12-08T14:18:21.166Z,11.10
2022-12-08T14:23:51.465Z,12.23
2022-12-08T14:26:18.974Z,11.88
2022-12-08T14:28:46.554Z,11.27
2022-12-08T14:31:14.778Z,10.55
2022-12-08T14:33:43.042Z,11.27
2022-12-08T14:36:12.445Z,12.07
2022-12-08T14:38:40.124Z,10.60
2022-12-08T14:41:09.509Z,11.65
2022-12-08T14:43:37.154Z,12.75
2022-12-08T14:46:26.641Z,14.68
2022-12-08T14:48:56.651Z,13.00
2022-12-08T14:51:29.362Z,10.80
2022-12-08T14:54:01.043Z,11.85
2022-12-08T14:56:54.925Z,14.90
2022-12-08T14:59:35.662Z,19.38
2022-12-08T15:02:27.207Z,20.42
2022-12-08T15:05:16.990Z,24.17
2022-12-08T15:07:51.574Z,20.52
2022-12-08T15:10:26.608Z,20.35
2022-12-08T15:13:00.394Z,17.60
2022-12-08T15:15:29.080Z,16.20
2022-12-08T15:18:21.288Z,21.20
2022-12-08T15:20:51.597Z,16.42
2022-12-08T15:23:21.045Z,15.80
2022-12-08T15:25:49.749Z,21.80
2022-12-08T15:28:22.067Z,20.23
2022-12-08T15:30:53.109Z,20.13
2022-12-08T15:33:21.009Z,17.65
2022-12-08T15:35:50.320Z,22.17
2022-12-08T15:38:26.725Z,19.58
2022-12-08T15:40:55.152Z,21.58
2022-12-08T15:43:23.200Z,21.52
2022-12-08T15:45:59.151Z,18.45
2022-12-08T15:48:29.448Z,17.33
2022-12-08T15:50:57.981Z,17.48
2022-12-08T15:53:25.814Z,22.45
2022-12-08T15:56:25.633Z,20.50
2022-12-08T15:58:57.985Z,28.17
2022-12-08T16:01:26.602Z,40.40
2022-12-08T16:04:37.286Z,39.78
2022-12-08T16:09:43.401Z,31.85
2022-12-08T16:13:40.294Z,35.45
2022-12-08T16:18:23.997Z,23.42
2022-12-08T16:21:12.485Z,25.90
2022-12-08T16:23:44.689Z,20.60
2022-12-08T16:29:06.826Z,25.35
2022-12-08T16:31:34.839Z,22.38
2022-12-08T16:34:02.942Z,25.27
2022-12-08T16:36:30.531Z,25.38
2022-12-08T16:38:58.117Z,23.98
2022-12-08T16:41:44.668Z,24.10
2022-12-08T16:44:12.335Z,21.83
2022-12-08T16:46:39.891Z,24.67
2022-12-08T16:49:09.323Z,21.83
2022-12-08T16:51:37.127Z,21.15
2022-12-08T16:54:05.281Z,25.20
2022-12-08T16:56:33.743Z,23.15
2022-12-08T16:59:02.152Z,29.88
2022-12-08T17:01:30.190Z,25.17
2022-12-08T17:06:45.686Z,26.48
2022-12-08T17:09:13.351Z,39.35
2022-12-08T17:11:43.719Z,30.42
2022-12-08T17:14:14.896Z,26.40
2022-12-08T17:16:44.157Z,21.35
2022-12-08T17:19:15.545Z,27.40
2022-12-08T17:21:44.574Z,25.77
2022-12-08T17:24:15.830Z,27.30
2022-12-08T17:26:46.204Z,22.30
2022-12-08T17:29:14.168Z,33.72
2022-12-08T17:31:42.551Z,31.75
2022-12-08T17:34:11.456Z,28.33
2022-12-08T17:36:39.464Z,35.88
2022-12-08T17:39:12.012Z,29.15
2022-12-08T17:41:42.780Z,30.35
2022-12-08T17:44:13.210Z,44.45
2022-12-08T17:46:46.350Z,35.75
2022-12-08T17:49:21.169Z,35.60
2022-12-08T17:51:52.850Z,32.05
2022-12-08T17:54:20.977Z,31.67
2022-12-08T17:56:48.523Z,28.52
2022-12-08T17:59:16.603Z,31.60
2022-12-08T18:01:44.347Z,28.77
2022-12-08T18:04:12.934Z,31.77
2022-12-08T18:06:40.827Z,32.92
2022-12-08T18:09:09.036Z,34.70
2022-12-08T18:11:36.980Z,35.00
2022-12-08T18:14:09.501Z,34.75
2022-12-08T18:16:42.942Z,36.97
2022-12-08T18:19:12.099Z,52.10
2022-12-08T18:21:40.353Z,78.97
2022-12-08T18:24:08.846Z,72.07
2022-12-08T18:26:36.466Z,49.30
2022-12-08T18:29:04.105Z,41.20
2022-12-08T18:31:31.753Z,39.55
2022-12-08T18:33:59.677Z,44.45
2022-12-08T18:36:27.313Z,45.25
2022-12-08T18:38:55.069Z,45.78
2022-12-08T18:41:25.972Z,44.67
2022-12-08T18:43:55.331Z,43.75
2022-12-08T18:46:23.531Z,48.75
2022-12-08T18:48:52.204Z,48.58
2022-12-08T18:51:23.536Z,46.25
2022-12-08T18:53:52.070Z,48.35
2022-12-08T18:56:27.054Z,48.20
2022-12-08T18:59:02.600Z,46.20
2022-12-08T19:01:35.891Z,39.97
2022-12-08T19:04:38.436Z,44.90
2022-12-08T19:06:53.855Z,45.97
2022-12-08T19:09:21.671Z,46.80
2022-12-08T19:11:49.314Z,40.83
2022-12-08T19:14:19.221Z,38.83
2022-12-08T19:16:50.477Z,39.88
2022-12-08T19:19:18.279Z,37.25
2022-12-08T19:21:46.630Z,45.75
2022-12-08T19:24:14.494Z,39.53
2022-12-08T19:26:42.773Z,46.03
2022-12-08T19:29:11.414Z,43.65
2022-12-08T19:31:39.486Z,49.58
2022-12-08T19:34:09.237Z,50.95
2022-12-08T19:36:42.803Z,49.78
2022-12-08T19:39:41.629Z,47.15
2022-12-08T19:42:52.637Z,41.47
2022-12-08T19:45:22.165Z,53.40
2022-12-08T19:47:49.789Z,46.58
2022-12-08T19:50:38.536Z,42.92
2022-12-08T19:53:12.033Z,45.42
2022-12-08T19:55:40.207Z,41.78
2022-12-08T19:58:08.302Z,45.88
2022-12-08T20:00:38.480Z,69.82
2022-12-08T20:03:07.073Z,49.42
2022-12-08T20:05:36.543Z,41.17
2022-12-08T20:08:04.778Z,51.17
2022-12-08T20:10:35.756Z,42.42
2022-12-08T20:13:23.120Z,46.07
2022-12-08T20:15:50.933Z,38.38
2022-12-08T20:18:18.810Z,39.85
2022-12-08T20:20:46.980Z,49.88
2022-12-08T20:23:15.935Z,52.08
2022-12-08T20:25:45.842Z,58.28
2022-12-08T20:28:13.805Z,43.92
2022-12-08T20:30:44.966Z,50.90
2022-12-08T20:33:17.497Z,56.90
2022-12-08T20:35:47.630Z,45.50
2022-12-08T20:38:15.449Z,43.58
2022-12-08T20:40:44.133Z,43.20
2022-12-08T20:43:11.814Z,51.50
2022-12-08T20:45:39.359Z,50.08
2022-12-08T20:48:07.334Z,44.33
2022-12-08T20:50:35.266Z,44.50
2022-12-08T20:53:03.068Z,43.45
2022-12-08T20:55:30.914Z,45.08
2022-12-08T20:57:58.846Z,38.88
2022-12-08T21:00:27.934Z,43.70
2022-12-08T21:02:56.979Z,41.25
2022-12-08T21:05:25.449Z,40.83
2022-12-08T21:07:53.267Z,37.33
2022-12-08T21:10:21.218Z,34.65
2022-12-08T21:12:48.864Z,36.50
2022-12-08T21:15:16.732Z,36.67
2022-12-08T21:17:44.845Z,35.88
2022-12-08T21:20:12.931Z,63.67
2022-12-08T21:22:40.918Z,71.20
2022-12-08T21:25:09.303Z,71.35
2022-12-08T21:27:37.789Z,72.40
2022-12-08T21:30:07.320Z,60.33
2022-12-08T21:32:35.312Z,42.03
2022-12-08T21:35:03.011Z,39.45
2022-12-08T21:37:30.788Z,43.95
2022-12-08T21:39:58.441Z,40.33
2022-12-08T21:42:44.069Z,33.72
2022-12-08T21:45:17.267Z,34.88
2022-12-08T21:47:46.377Z,32.50
2022-12-08T21:50:14.695Z,35.83
2022-12-08T21:52:44.384Z,33.30
2022-12-08T21:55:13.089Z,29.35
2022-12-08T21:57:41.062Z,36.03
2022-12-08T22:00:13.674Z,32.03
2022-12-08T22:02:41.737Z,27.95
2022-12-08T22:05:10.198Z,24.52
2022-12-08T22:07:39.691Z,25.42
2022-12-08T22:10:08.790Z,26.83
2022-12-08T22:12:37.953Z,29.13
2022-12-08T22:15:07.559Z,29.55
2022-12-08T22:17:43.498Z,25.17
2022-12-08T22:20:14.184Z,24.30
2022-12-08T22:22:42.265Z,24.13
2022-12-08T22:25:13.733Z,31.45
2022-12-08T22:27:41.570Z,25.85
2022-12-08T22:30:10.080Z,22.98
2022-12-08T22:32:38.160Z,25.55
2022-12-08T22:35:06.822Z,24.88
2022-12-08T22:37:34.535Z,26.65
2022-12-08T22:40:02.081Z,22.90
2022-12-08T22:42:29.780Z,25.33
2022-12-08T22:44:57.392Z,22.90
2022-12-08T22:47:25.184Z,24.75
2022-12-08T22:49:52.967Z,33.97
2022-12-08T22:52:20.757Z,24.92
2022-12-08T22:54:48.850Z,24.92
2022-12-08T22:57:17.649Z,23.98
2022-12-08T22:59:45.180Z,26.85
2022-12-08T23:02:12.722Z,23.42
2022-12-08T23:04:40.524Z,26.10
2022-12-08T23:07:08.353Z,27.48
2022-12-08T23:09:35.937Z,30.73
2022-12-08T23:12:04.845Z,26.40
2022-12-08T23:14:32.388Z,24.58
2022-12-08T23:17:00.269Z,23.55
2022-12-08T23:19:27.941Z,25.90
2022-12-08T23:21:55.463Z,23.02
2022-12-08T23:24:23.146Z,31.30
2022-12-08T23:26:50.736Z,23.98
2022-12-08T23:29:18.322Z,23.98
2022-12-08T23:31:46.005Z,21.55
2022-12-08T23:34:13.897Z,22.30
2022-12-08T23:36:41.570Z,23.77
2022-12-08T23:39:10.858Z,24.60
2022-12-08T23:41:38.711Z,19.08
2022-12-08T23:44:06.579Z,23.10
2022-12-08T23:46:34.492Z,21.67
2022-12-08T23:49:02.330Z,24.08
2022-12-08T23:51:30.314Z,22.50
2022-12-08T23:53:57.996Z,17.35
2022-12-08T23:56:30.199Z,27.85
2022-12-08T23:58:59.928Z,24.70
